createdAt,value
2023-05-02T00:01:05.108Z,100702.47
2023-05-02T00:05:07.671Z,100713.97
2023-05-02T00:09:10.159Z,100703.19
2023-05-02T00:13:12.352Z,100704.22
2023-05-02T00:17:18.818Z,100708.22
2023-05-02T00:21:21.136Z,100701.69
2023-05-02T00:25:23.683Z,100696.28
2023-05-02T00:29:25.894Z,100691.69
2023-05-02T00:33:28.117Z,100690.91
2023-05-02T00:37:30.131Z,100694.88
2023-05-02T00:41:32.200Z,100683.88
2023-05-02T00:45:34.412Z,100682.84
2023-05-02T00:49:36.460Z,100670.81
2023-05-02T00:53:38.837Z,100676.78
2023-05-02T00:57:40.938Z,100677.88
2023-05-02T01:01:57.377Z,100680.34
2023-05-02T01:06:25.083Z,100667.81
2023-05-02T01:11:03.159Z,100683.47
2023-05-02T01:15:07.775Z,100676.22
2023-05-02T01:19:19.676Z,100657.56
2023-05-02T01:23:41.061Z,100663.94
2023-05-02T01:27:55.112Z,100663.66
2023-05-02T01:32:00.799Z,100660.91
2023-05-02T01:36:04.744Z,100655.50
2023-05-02T01:40:08.644Z,100660.03
2023-05-02T01:44:11.616Z,100650.59
2023-05-02T01:48:16.068Z,100643.53
2023-05-02T01:52:22.382Z,100640.38
2023-05-02T01:56:25.505Z,100635.81
2023-05-02T02:00:29.849Z,100631.38
2023-05-02T02:04:34.981Z,100623.84
2023-05-02T02:08:37.249Z,100626.41
2023-05-02T02:12:45.360Z,100617.53
2023-05-02T02:16:50.849Z,100621.03
2023-05-02T02:20:55.954Z,100618.78
2023-05-02T02:24:59.425Z,100618.31
2023-05-02T02:29:01.522Z,100613.03
2023-05-02T02:33:03.689Z,100610.13
2023-05-02T02:37:19.196Z,100613.22
2023-05-02T02:41:28.013Z,100612.03
2023-05-02T02:46:32.223Z,100609.84
2023-05-02T02:50:54.891Z,100611.63
2023-05-02T02:55:12.870Z,100608.22
2023-05-02T02:59:26.214Z,100604.75
2023-05-02T03:03:31.266Z,100600.44
2023-05-02T03:07:33.472Z,100592.78
2023-05-02T03:11:37.432Z,100597.34
2023-05-02T03:15:52.628Z,100595.41
2023-05-02T03:20:01.793Z,100601.50
2023-05-02T03:24:05.108Z,100588.44
2023-05-02T03:28:07.441Z,100597.47
2023-05-02T03:32:10.839Z,100600.66
2023-05-02T03:36:16.233Z,100599.81
2023-05-02T03:40:21.721Z,100603.91
2023-05-02T03:44:24.249Z,100603.63
2023-05-02T03:48:27.898Z,100601.31
2023-05-02T03:52:30.808Z,100603.19
2023-05-02T03:56:33.288Z,100603.78
2023-05-02T04:00:55.683Z,100609.41
2023-05-02T04:04:59.383Z,100609.34
2023-05-02T04:09:01.859Z,100615.84
2023-05-02T04:13:11.421Z,100614.84
2023-05-02T04:17:18.689Z,100614.25
2023-05-02T04:21:23.748Z,100614.19
2023-05-02T04:25:26.149Z,100615.91
2023-05-02T04:29:31.223Z,100613.34
2023-05-02T04:33:34.931Z,100616.63
2023-05-02T04:37:36.865Z,100608.03
2023-05-02T04:41:39.896Z,100609.13
2023-05-02T04:45:42.940Z,100610.50
2023-05-02T04:49:51.462Z,100613.38
2023-05-02T04:53:53.463Z,100613.31
2023-05-02T04:57:55.743Z,100611.38
2023-05-02T05:01:57.899Z,100605.91
2023-05-02T05:06:00.663Z,100611.34
2023-05-02T05:10:03.808Z,100608.06
2023-05-02T05:14:13.910Z,100605.16
2023-05-02T05:18:18.399Z,100603.94
2023-05-02T05:22:20.884Z,100601.66
2023-05-02T05:26:25.179Z,100596.56
2023-05-02T05:30:28.077Z,100596.41
2023-05-02T05:34:30.974Z,100591.03
2023-05-02T05:38:35.617Z,100591.97
2023-05-02T05:42:38.715Z,100589.69
2023-05-02T05:46:46.598Z,100593.78
2023-05-02T05:50:49.269Z,100597.00
2023-05-02T05:54:56.708Z,100599.63
2023-05-02T05:59:00.661Z,100586.81
2023-05-02T06:03:03.909Z,100598.00
2023-05-02T06:07:08.341Z,100593.97
2023-05-02T06:11:11.701Z,100590.16
2023-05-02T06:15:13.809Z,100578.09
2023-05-02T06:19:16.659Z,100594.59
2023-05-02T06:23:18.961Z,100596.09
2023-05-02T06:27:20.926Z,100593.88
2023-05-02T06:31:23.165Z,100601.69
2023-05-02T06:35:25.566Z,100599.75
2023-05-02T06:39:27.621Z,100598.13
2023-05-02T06:43:29.668Z,100599.41
2023-05-02T06:47:31.792Z,100591.56
2023-05-02T06:51:33.801Z,100595.25
2023-05-02T06:55:35.938Z,100590.63
2023-05-02T06:59:37.980Z,100596.44
2023-05-02T07:03:40.043Z,100586.84
2023-05-02T07:07:42.799Z,100592.50
2023-05-02T07:11:45.064Z,100600.13
2023-05-02T07:15:47.025Z,100593.13
2023-05-02T07:19:49.014Z,100585.59
2023-05-02T07:23:52.565Z,100592.13
2023-05-02T07:27:56.373Z,100596.72
2023-05-02T07:31:58.489Z,100599.88
2023-05-02T07:36:02.028Z,100595.16
2023-05-02T07:40:04.741Z,100580.06
2023-05-02T07:44:07.094Z,100590.88
2023-05-02T07:48:09.248Z,100579.34
2023-05-02T07:52:11.319Z,100575.72
2023-05-02T07:56:13.486Z,100581.72
2023-05-02T08:00:16.290Z,100576.59
2023-05-02T08:04:18.562Z,100584.25
2023-05-02T08:08:20.876Z,100565.00
2023-05-02T08:12:23.023Z,100564.75
2023-05-02T08:16:25.061Z,100560.41
2023-05-02T08:20:27.005Z,100578.94
2023-05-02T08:24:30.932Z,100576.50
2023-05-02T08:28:32.998Z,100584.28
2023-05-02T08:32:36.933Z,100590.25
2023-05-02T08:36:39.037Z,100590.34
2023-05-02T08:40:42.600Z,100596.84
2023-05-02T08:44:44.728Z,100599.75
2023-05-02T08:48:48.378Z,100607.44
2023-05-02T08:52:52.056Z,100605.00
2023-05-02T08:56:54.811Z,100599.81
2023-05-02T09:01:02.123Z,100599.66
2023-05-02T09:05:08.097Z,100593.28
2023-05-02T09:09:10.229Z,100598.16
2023-05-02T09:13:32.843Z,100606.13
2023-05-02T09:17:42.808Z,100596.78
2023-05-02T09:21:45.118Z,100604.00
2023-05-02T09:25:47.261Z,100613.72
2023-05-02T09:29:49.278Z,100602.00
2023-05-02T09:33:52.054Z,100609.69
2023-05-02T09:37:55.749Z,100622.00
2023-05-02T09:41:58.736Z,100617.28
2023-05-02T09:46:09.211Z,100619.41
2023-05-02T09:50:11.636Z,100630.47
2023-05-02T09:54:14.726Z,100632.25
2023-05-02T09:58:26.126Z,100631.31
2023-05-02T10:02:30.573Z,100631.34
2023-05-02T10:06:33.181Z,100640.56
2023-05-02T10:10:37.959Z,100641.22
2023-05-02T10:14:43.683Z,100658.06
2023-05-02T10:18:52.661Z,100655.44
2023-05-02T10:22:55.269Z,100665.88
2023-05-02T10:26:57.477Z,100660.72
2023-05-02T10:31:00.963Z,100663.28
2023-05-02T10:35:05.374Z,100669.84
2023-05-02T10:39:08.196Z,100670.97
2023-05-02T10:43:15.682Z,100678.66
2023-05-02T10:47:27.430Z,100686.84
2023-05-02T10:51:31.422Z,100684.25
2023-05-02T10:55:33.455Z,100689.34
2023-05-02T10:59:40.515Z,100705.03
2023-05-02T11:03:58.583Z,100719.59
2023-05-02T11:08:15.469Z,100726.78
2023-05-02T11:12:43.413Z,100741.00
2023-05-02T11:16:58.001Z,100745.63
2023-05-02T11:21:28.758Z,100763.31
2023-05-02T11:25:38.674Z,100767.63
2023-05-02T11:30:02.366Z,100791.41
2023-05-02T11:34:04.641Z,100783.97
2023-05-02T11:38:14.950Z,100787.94
2023-05-02T11:42:30.188Z,100795.91
2023-05-02T11:46:32.768Z,100800.41
2023-05-02T11:50:49.561Z,100766.84
2023-05-02T11:54:58.835Z,100768.06
2023-05-02T11:59:03.286Z,100812.53
2023-05-02T12:03:05.805Z,100818.94
2023-05-02T12:07:10.069Z,100830.75
2023-05-02T12:11:18.232Z,100829.13
2023-05-02T12:15:20.408Z,100834.09
2023-05-02T12:19:22.603Z,100845.63
2023-05-02T12:23:28.666Z,100840.25
2023-05-02T12:27:30.700Z,100839.13
2023-05-02T12:31:32.941Z,100849.09
2023-05-02T12:35:36.107Z,100842.34
2023-05-02T12:39:39.793Z,100859.56
2023-05-02T12:43:48.981Z,100857.63
2023-05-02T12:47:51.168Z,100853.75
2023-05-02T12:51:55.721Z,100858.25
2023-05-02T12:56:03.931Z,100858.41
2023-05-02T13:00:06.871Z,100860.63
2023-05-02T13:04:08.950Z,100847.31
2023-05-02T13:08:11.086Z,100857.66
2023-05-02T13:12:13.133Z,100867.31
2023-05-02T13:16:15.237Z,100862.41
2023-05-02T13:20:17.373Z,100870.66
2023-05-02T13:24:19.481Z,100878.59
2023-05-02T13:28:21.441Z,100877.28
2023-05-02T13:32:23.599Z,100881.75
2023-05-02T13:36:25.930Z,100884.53
2023-05-02T13:40:28.021Z,100884.97
2023-05-02T13:44:31.538Z,100888.50
2023-05-02T13:48:33.588Z,100885.28
2023-05-02T13:52:35.655Z,100882.38
2023-05-02T13:56:39.758Z,100879.94
2023-05-02T14:00:41.939Z,100887.56
2023-05-02T14:04:44.106Z,100893.41
2023-05-02T14:08:46.149Z,100886.59
2023-05-02T14:12:49.397Z,100885.47
2023-05-02T14:16:51.756Z,100891.09
2023-05-02T14:20:53.767Z,100901.41
2023-05-02T14:24:56.155Z,100897.56
2023-05-02T14:28:58.520Z,100891.44
2023-05-02T14:33:00.734Z,100902.09
2023-05-02T14:37:02.877Z,100898.88
2023-05-02T14:41:06.157Z,100900.03
2023-05-02T14:45:09.611Z,100907.69
2023-05-02T14:49:11.641Z,100906.94
2023-05-02T14:53:14.211Z,100906.81
2023-05-02T14:57:16.484Z,100903.19
2023-05-02T15:01:19.993Z,100891.63
2023-05-02T15:05:22.771Z,100901.94
2023-05-02T15:09:27.750Z,100902.53
2023-05-02T15:13:29.755Z,100898.34
2023-05-02T15:17:31.829Z,100899.31
2023-05-02T15:21:35.286Z,100895.69
2023-05-02T15:25:37.356Z,100898.66
2023-05-02T15:29:40.114Z,100888.97
2023-05-02T15:33:42.157Z,100890.59
2023-05-02T15:37:44.179Z,100886.38
2023-05-02T15:41:47.829Z,100883.03
2023-05-02T15:45:55.163Z,100893.78
2023-05-02T15:49:58.264Z,100890.44
2023-05-02T15:54:00.492Z,100887.16
2023-05-02T15:58:02.607Z,100885.81
2023-05-02T16:02:04.864Z,100894.16
2023-05-02T16:06:07.687Z,100894.84
2023-05-02T16:10:10.195Z,100891.81
2023-05-02T16:14:12.219Z,100893.16
2023-05-02T16:18:15.421Z,100899.72
2023-05-02T16:22:17.469Z,100900.41
2023-05-02T16:26:20.843Z,100907.19
2023-05-02T16:30:23.245Z,100904.03
2023-05-02T16:34:25.764Z,100909.59
2023-05-02T16:38:27.792Z,100916.03
2023-05-02T16:42:30.046Z,100916.06
2023-05-02T16:46:32.765Z,100918.59
2023-05-02T16:50:34.839Z,100925.13
2023-05-02T16:54:37.461Z,100926.88
2023-05-02T16:58:39.446Z,100920.56
2023-05-02T17:02:41.669Z,100923.94
2023-05-02T17:06:43.920Z,100923.44
2023-05-02T17:10:50.166Z,100928.38
2023-05-02T17:14:52.209Z,100924.47
2023-05-02T17:18:54.243Z,100922.88
2023-05-02T17:22:56.357Z,100929.34
2023-05-02T17:26:58.618Z,100925.78
2023-05-02T17:31:01.246Z,100930.34
2023-05-02T17:35:03.418Z,100931.13
2023-05-02T17:39:05.222Z,100922.34
2023-05-02T17:43:07.271Z,100937.06
2023-05-02T17:47:09.328Z,100940.78
2023-05-02T17:51:12.621Z,100937.09
2023-05-02T17:55:14.758Z,100945.06
2023-05-02T17:59:18.758Z,100939.88
2023-05-02T18:03:21.014Z,100944.84
2023-05-02T18:07:29.003Z,100946.41
2023-05-02T18:11:32.137Z,100945.03
2023-05-02T18:15:34.381Z,100948.13
2023-05-02T18:19:36.483Z,100946.31
2023-05-02T18:23:39.954Z,100956.34
2023-05-02T18:27:42.098Z,100953.59
2023-05-02T18:31:46.446Z,100963.75
2023-05-02T18:35:49.348Z,100968.94
2023-05-02T18:39:51.328Z,100966.09
2023-05-02T18:43:53.331Z,100974.22
2023-05-02T18:47:55.540Z,100984.22
2023-05-02T18:51:57.605Z,100992.41
2023-05-02T18:55:59.659Z,100998.56
2023-05-02T19:00:01.889Z,101007.47
2023-05-02T19:04:04.152Z,101005.66
2023-05-02T19:08:07.113Z,101014.09
2023-05-02T19:12:09.325Z,101015.56
2023-05-02T19:16:12.827Z,101016.63
2023-05-02T19:20:15.023Z,101032.78
2023-05-02T19:24:18.533Z,101032.81
2023-05-02T19:28:20.947Z,101042.19
2023-05-02T19:32:24.025Z,101047.69
2023-05-02T19:36:27.471Z,101060.41
2023-05-02T19:40:29.887Z,101063.34
2023-05-02T19:44:31.910Z,101071.38
2023-05-02T19:48:33.917Z,101081.88
2023-05-02T19:52:37.357Z,101092.88
2023-05-02T19:56:39.437Z,101103.03
2023-05-02T20:00:42.027Z,101106.75
2023-05-02T20:04:44.313Z,101123.31
2023-05-02T20:08:46.333Z,101125.66
2023-05-02T20:12:48.357Z,101126.56
2023-05-02T20:16:50.670Z,101121.53
2023-05-02T20:20:52.802Z,101127.19
2023-05-02T20:24:54.582Z,101137.97
2023-05-02T20:28:58.686Z,101139.88
2023-05-02T20:33:10.518Z,101139.31
2023-05-02T20:37:17.767Z,101150.66
2023-05-02T20:41:20.216Z,101155.03
2023-05-02T20:45:24.345Z,101159.06
2023-05-02T20:49:26.527Z,101167.25
2023-05-02T20:53:28.226Z,101168.22
2023-05-02T20:57:30.518Z,101172.16
2023-05-02T21:01:33.500Z,101184.78
2023-05-02T21:05:35.582Z,101179.63
2023-05-02T21:09:37.651Z,101179.28
2023-05-02T21:13:40.314Z,101185.47
2023-05-02T21:17:42.392Z,101189.59
2023-05-02T21:21:44.780Z,101189.72
2023-05-02T21:25:47.090Z,101181.28
2023-05-02T21:29:49.149Z,101192.66
2023-05-02T21:33:51.226Z,101190.72
2023-05-02T21:37:53.293Z,101193.22
2023-05-02T21:41:54.884Z,101195.94
2023-05-02T21:45:56.975Z,101200.75
2023-05-02T21:49:58.999Z,101215.34
2023-05-02T21:54:00.964Z,101219.56
2023-05-02T21:58:07.253Z,101227.13
2023-05-02T22:02:09.753Z,101257.22
2023-05-02T22:06:11.806Z,101254.09
2023-05-02T22:10:13.848Z,101258.28
2023-05-02T22:14:15.841Z,101239.88
2023-05-02T22:18:18.569Z,101257.59
2023-05-02T22:22:20.626Z,101262.94
2023-05-02T22:26:23.462Z,101257.13
2023-05-02T22:30:25.641Z,101254.22
2023-05-02T22:34:27.693Z,101263.34
2023-05-02T22:38:29.930Z,101270.28
2023-05-02T22:42:31.878Z,101259.91
2023-05-02T22:46:33.995Z,101266.13
2023-05-02T22:50:36.209Z,101276.00
2023-05-02T22:54:38.420Z,101281.19
2023-05-02T22:58:40.391Z,101291.41
2023-05-02T23:02:42.697Z,101289.88
2023-05-02T23:06:45.274Z,101290.63
2023-05-02T23:10:47.378Z,101281.16
2023-05-02T23:14:49.426Z,101299.81
2023-05-02T23:18:51.513Z,101310.63
2023-05-02T23:22:53.504Z,101304.00
2023-05-02T23:26:55.880Z,101309.56
2023-05-02T23:30:57.899Z,101308.00
2023-05-02T23:35:01.389Z,101313.41
2023-05-02T23:39:04.828Z,101303.84
2023-05-02T23:43:07.566Z,101311.16
2023-05-02T23:47:10.044Z,101325.22
2023-05-02T23:51:12.392Z,101335.00
2023-05-02T23:55:14.350Z,101324.38
2023-05-02T23:59:16.568Z,101331.63
